Flight Track Log - Related Links

Times and Time Zones

All times are in EDT time to prevent confusion due to time zone crossing. See the FLG3375 flight status page for this flight to view local times or setup timezone preferences in your user account.

Time Position Orientation Groundspeed Altitude Reporting Facility
EDT Latitude Longitude Course Direction KTS MPH feet Rate Location/Type
Tue 08:11:33 PM 39.0500 -84.6500 57° Northeast 145 167 1,400  Level Cincinnati TRACON
Tue 08:12:09 PM 39.0667 -84.6167 57° Northeast 171 197 2,600 1,385 Climbing Cincinnati TRACON
Tue 08:13:04 PM 39.0667 -84.5500 90° East 283 326 3,500 1,724 Climbing Cincinnati TRACON
Tue 08:13:36 PM 39.0486 -84.5025 116° Southeast 291 335 5,100 3,097 Climbing Indianapolis Center
Tue 08:14:37 PM 39.0158 -84.4142 116° Southeast 274 315 8,300 2,368 Climbing Indianapolis Center
Tue 08:16:41 PM 38.9389 -84.2108 96° East 326 375 12,400 2,000 Climbing Indianapolis Center
Tue 08:17:43 PM 38.8956 -84.0953 116° Southeast 353 406 14,500 1,935 Climbing Indianapolis Center
Tue 08:18:45 PM 38.8619 -83.9694 109° East 367 422 16,400 1,951 Climbing Indianapolis Center
Tue 08:19:46 PM 38.8275 -83.8114 106° East 379 436 18,500 1,459 Climbing Indianapolis Center
Tue 08:21:50 PM 38.7694 -83.5400 105° East 395 455 20,900 1,097 Climbing Indianapolis Center
Tue 08:22:52 PM 38.7661 -83.3881 92° East 424 488 21,900 968 Climbing Indianapolis Center
Tue 08:23:54 PM 38.7639 -83.2361 91° East 425 489 22,900 1,016 Climbing Indianapolis Center
Tue 08:24:56 PM 38.7642 -83.0711 90° East 431 496 24,000 1,016 Climbing Indianapolis Center
Tue 08:25:58 PM 38.7622 -82.9153 91° East 433 498 25,000 1,024 Climbing Indianapolis Center
Tue 08:26:59 PM 38.7158 -82.7386 109° East 434 499 26,100 878 Climbing Indianapolis Center
Tue 08:28:01 PM 38.6922 -82.5853 101° East 437 503 26,800 677 Climbing Indianapolis Center
Tue 08:29:03 PM 38.6669 -82.4303 102° East 440 506 27,500 677 Climbing Indianapolis Center
Tue 08:30:05 PM 38.6408 -82.2758 102° East 442 509 28,200 677 Climbing Indianapolis Center
Tue 08:31:07 PM 38.6161 -82.1228 102° East 442 509 28,900 390 Climbing Indianapolis Center
Tue 08:32:08 PM 38.5900 -81.9669 102° East 444 511 29,000 49 Climbing Indianapolis Center
Tue 08:33:10 PM 38.5636 -81.8081 102° East 455 524 29,000  Level Indianapolis Center
Tue 08:35:14 PM 38.5028 -81.4550 102° East 471 542 29,000  Level Indianapolis Center
Tue 08:36:15 PM 38.4747 -81.2911 102° East 475 547 29,000  Level Indianapolis Center
Tue 08:37:17 PM 38.4453 -81.1247 103° East 480 552 29,000  Level Indianapolis Center
Tue 08:38:19 PM 38.4161 -80.9575 103° East 482 555 29,000  Level Indianapolis Center
Tue 08:39:21 PM 38.3803 -80.7583 103° East 482 555 29,000  Level Indianapolis Center
Tue 08:40:22 PM 38.3511 -80.5919 103° East 482 555 29,000  Level Indianapolis Center
Tue 08:41:24 PM 38.3203 -80.4236 103° East 482 555 29,000  Level Indianapolis Center
Tue 08:42:25 PM 38.2956 -80.2528 100° East 487 560 29,000  Level Indianapolis Center
Tue 08:43:27 PM 38.2889 -80.0839 93° East 501 577 29,000  Level Indianapolis Center
Tue 08:44:29 PM 38.2786 -79.8728 93° East 504 580 29,000 -649 Level Indianapolis Center
Tue 08:46:32 PM 38.2617 -79.5208 93° East 509 586 27,000 -615 Descending Indianapolis Center
Tue 08:47:44 PM 38.2758 -79.3264 85° East 494 568 27,000  Level Washington Center
Tue 08:48:45 PM 38.3183 -79.1564 72° East 494 568 27,000  Level Washington Center
Tue 08:49:43 PM 38.3608 -78.9864 72° East 494 568 27,000  Level Washington Center
Tue 08:50:44 PM 38.4033 -78.8108 73° East 499 574 27,000  Level Washington Center
Tue 08:51:45 PM 38.4472 -78.6431 71° East 505 581 27,000  Level Washington Center
Tue 08:52:43 PM 38.4911 -78.4672 72° East 510 587 27,000 -958 Level Washington Center
Tue 08:53:44 PM 38.5350 -78.2883 73° East 517 595 25,100 -2,200 Descending Washington Center
Tue 08:54:43 PM 38.5761 -78.1253 72° East 502 578 22,600 -2,259 Descending Washington Center
Tue 08:56:26 PM 38.6333 -77.8667 74° East 396 456 19,000 -1,527 Descending Potomac TRACON
Tue 08:57:32 PM 38.6500 -77.7167 82° East 392 451 18,300 -905 Descending Potomac TRACON
Tue 08:58:32 PM 38.6667 -77.5833 81° East 400 460 17,100 -1,100 Descending Potomac TRACON
Tue 08:59:32 PM 38.6667 -77.4333 90° East 404 465 16,100 -550 Descending Potomac TRACON
Tue 09:00:32 PM 38.6833 -77.2833 82° East 397 457 16,000 -1,050 Descending Potomac TRACON
Tue 09:01:32 PM 38.6833 -77.1500 90° East 402 463 14,000 -1,857 Descending Potomac TRACON
Tue 09:02:38 PM 38.6833 -77.0000 90° East 372 428 12,100 -1,591 Descending Potomac TRACON
Tue 09:03:44 PM 38.6981 -76.8739 81° East 356 410 10,500 -1,250 Descending Washington Center
Tue 09:05:26 PM 38.7333 -76.7000 75° East 291 335 8,600 -1,250 Descending Potomac TRACON
Tue 09:06:32 PM 38.7667 -76.6000 67° East 276 318 7,000 -1,238 Descending Potomac TRACON
Tue 09:07:32 PM 38.8000 -76.5167 63° Northeast 236 272 6,000 -474 Descending Potomac TRACON
Tue 09:08:26 PM 38.8333 -76.4667 49° Northeast 218 251 6,100  Climbing Potomac TRACON
Tue 09:09:26 PM 38.8500 -76.3833 76° East 222 255 6,000 -700 Descending Potomac TRACON
Tue 09:10:26 PM 38.9000 -76.3500 27° Northeast 207 238 4,700 -950 Descending Potomac TRACON
Tue 09:11:26 PM 38.9500 -76.3000 38° Northeast 209 241 4,100 -286 Descending Potomac TRACON
Tue 09:12:32 PM 39.0167 -76.3000 360° North 202 232 4,100 -350 Level Potomac TRACON
Tue 09:13:26 PM 39.0500 -76.3167 339° North 189 217 3,400 -526 Descending Potomac TRACON
Tue 09:14:26 PM 39.1000 -76.3500 333° Northwest 197 227 3,100 -200 Descending Potomac TRACON
Tue 09:15:26 PM 39.1500 -76.3833 333° Northwest 192 221 3,000 -50 Descending Potomac TRACON
Tue 09:16:27 PM 39.1667 -76.4500 288° West 176 203 3,000 -236 Level Potomac TRACON
Tue 09:17:33 PM 39.1667 -76.5167 270° West 161 185 2,500 -595 Descending Potomac TRACON
Tue 09:18:28 PM 39.1667 -76.5500 270° West 131 151 1,800 -744 Descending Potomac TRACON
Tue 09:19:34 PM 39.1667 -76.6000 270° West 132 152 1,000 -727 Descending Potomac TRACON

Login

Don't have an account? Register now (free) for customized features, flight alerts, and more!